createdAt,value
2018-03-08T00:00:01.177Z,3.77
2018-03-08T00:02:27.857Z,3.20
2018-03-08T00:04:54.458Z,3.33
2018-03-08T00:07:21.090Z,3.20
2018-03-08T00:09:47.702Z,2.83
2018-03-08T00:12:14.689Z,2.93
2018-03-08T00:14:41.329Z,3.83
2018-03-08T00:17:07.975Z,3.50
2018-03-08T00:19:35.476Z,3.77
2018-03-08T00:22:02.089Z,3.47
2018-03-08T00:24:28.812Z,3.60
2018-03-08T00:26:55.497Z,3.97
2018-03-08T00:29:22.129Z,3.80
2018-03-08T00:31:48.793Z,3.47
2018-03-08T00:34:15.427Z,4.13
2018-03-08T00:36:42.040Z,4.30
2018-03-08T00:39:09.389Z,3.97
2018-03-08T00:41:36.038Z,3.53
2018-03-08T00:44:03.646Z,3.43
2018-03-08T00:46:30.485Z,3.70
2018-03-08T00:48:57.586Z,3.20
2018-03-08T00:51:24.254Z,3.53
2018-03-08T00:53:50.916Z,4.00
2018-03-08T00:56:17.585Z,3.17
2018-03-08T00:58:44.234Z,3.63
2018-03-08T01:01:10.846Z,3.47
2018-03-08T01:03:37.480Z,3.33
2018-03-08T01:06:04.133Z,3.77
2018-03-08T01:08:31.196Z,3.83
2018-03-08T01:10:58.209Z,3.83
2018-03-08T01:13:25.253Z,3.67
2018-03-08T01:15:51.963Z,3.70
2018-03-08T01:18:18.577Z,3.70
2018-03-08T01:20:45.216Z,3.87
2018-03-08T01:23:11.842Z,3.97
2018-03-08T01:25:38.490Z,3.73
2018-03-08T01:28:05.129Z,3.70
2018-03-08T01:30:32.103Z,3.87
2018-03-08T01:32:58.777Z,3.63
2018-03-08T01:35:25.624Z,3.43
2018-03-08T01:37:52.319Z,3.90
2018-03-08T01:40:18.989Z,4.17
2018-03-08T01:42:45.683Z,4.20
2018-03-08T01:45:12.343Z,4.07
2018-03-08T01:47:38.996Z,4.17
2018-03-08T01:50:05.843Z,4.10
2018-03-08T01:52:32.657Z,4.17
2018-03-08T01:54:59.342Z,3.60
2018-03-08T01:57:26.058Z,4.53
2018-03-08T01:59:52.845Z,3.93
2018-03-08T02:02:19.471Z,4.17
2018-03-08T02:04:46.203Z,3.10
2018-03-08T02:07:12.836Z,3.90
2018-03-08T02:09:39.466Z,4.37
2018-03-08T02:12:06.101Z,3.20
2018-03-08T02:14:32.728Z,3.70
2018-03-08T02:16:59.379Z,3.60
2018-03-08T02:19:25.993Z,3.63
2018-03-08T02:21:52.700Z,3.23
2018-03-08T02:24:19.372Z,3.13
2018-03-08T02:26:45.998Z,3.60
2018-03-08T02:29:12.682Z,3.27
2018-03-08T02:31:39.342Z,3.57
2018-03-08T02:34:06.085Z,4.00
2018-03-08T02:36:32.796Z,4.40
2018-03-08T02:38:59.485Z,3.93
2018-03-08T02:41:26.139Z,3.90
2018-03-08T02:43:52.807Z,4.30
2018-03-08T02:46:19.471Z,3.90
2018-03-08T02:48:46.119Z,3.80
2018-03-08T02:51:12.783Z,3.30
2018-03-08T02:53:39.396Z,3.47
2018-03-08T02:56:06.169Z,3.67
2018-03-08T02:58:32.829Z,3.77
2018-03-08T03:00:59.552Z,3.70
2018-03-08T03:03:26.401Z,4.13
2018-03-08T03:05:53.027Z,4.43
2018-03-08T03:08:19.723Z,3.60
2018-03-08T03:10:46.363Z,3.80
2018-03-08T03:13:13.034Z,4.03
2018-03-08T03:15:39.682Z,4.07
2018-03-08T03:18:06.335Z,4.60
2018-03-08T03:20:32.975Z,3.60
2018-03-08T03:22:59.594Z,3.90
2018-03-08T03:25:26.256Z,3.90
2018-03-08T03:27:52.865Z,4.00
2018-03-08T03:30:19.526Z,5.00
2018-03-08T03:32:46.136Z,3.93
2018-03-08T03:35:12.766Z,4.13
2018-03-08T03:37:39.403Z,4.13
2018-03-08T03:40:06.034Z,4.30
2018-03-08T03:42:32.748Z,4.87
2018-03-08T03:44:59.391Z,4.40
2018-03-08T03:47:26.039Z,4.43
2018-03-08T03:49:52.708Z,4.70
2018-03-08T03:52:19.329Z,4.03
2018-03-08T03:54:45.970Z,4.43
2018-03-08T03:57:12.634Z,4.13
2018-03-08T03:59:39.364Z,5.00
2018-03-08T04:02:06.001Z,4.20
2018-03-08T04:04:32.708Z,3.73
2018-03-08T04:06:59.301Z,3.97
2018-03-08T04:09:26.057Z,4.17
2018-03-08T04:11:52.697Z,4.20
2018-03-08T04:14:19.398Z,3.27
2018-03-08T04:16:45.968Z,3.33
2018-03-08T04:19:12.686Z,3.70
2018-03-08T04:21:39.368Z,4.00
2018-03-08T04:24:05.981Z,3.53
2018-03-08T04:26:32.713Z,3.63
2018-03-08T04:28:59.340Z,3.10
2018-03-08T04:31:25.974Z,3.03
2018-03-08T04:33:52.589Z,2.80
2018-03-08T04:36:19.246Z,3.10
2018-03-08T04:38:45.888Z,3.40
2018-03-08T04:41:12.527Z,2.90
2018-03-08T04:43:39.192Z,3.20
2018-03-08T04:46:05.829Z,2.83
2018-03-08T04:48:32.480Z,2.77
2018-03-08T04:50:59.121Z,2.93
2018-03-08T04:53:25.781Z,3.00
2018-03-08T04:55:52.490Z,3.10
2018-03-08T04:58:19.164Z,3.17
2018-03-08T05:00:45.793Z,3.37
2018-03-08T05:03:12.501Z,2.80
2018-03-08T05:05:39.138Z,3.03
2018-03-08T05:08:05.780Z,3.80
2018-03-08T05:10:32.402Z,3.63
2018-03-08T05:12:59.033Z,4.00
2018-03-08T05:15:25.743Z,3.13
2018-03-08T05:17:52.462Z,3.13
2018-03-08T05:20:19.259Z,3.50
2018-03-08T05:22:45.926Z,3.13
2018-03-08T05:25:12.578Z,2.80
2018-03-08T05:27:39.211Z,2.97
2018-03-08T05:30:05.889Z,3.43
2018-03-08T05:32:32.905Z,3.03
2018-03-08T05:34:59.608Z,3.00
2018-03-08T05:37:26.237Z,3.23
2018-03-08T05:39:52.882Z,3.17
2018-03-08T05:42:19.608Z,2.97
2018-03-08T05:44:46.235Z,3.33
2018-03-08T05:47:12.981Z,2.87
2018-03-08T05:49:39.621Z,3.33
2018-03-08T05:52:06.269Z,3.10
2018-03-08T05:54:32.880Z,3.10
2018-03-08T05:56:59.573Z,3.50
2018-03-08T05:59:27.262Z,3.33
2018-03-08T06:01:53.943Z,2.90
2018-03-08T06:04:20.601Z,3.33
2018-03-08T06:06:47.244Z,2.90
2018-03-08T06:09:14.927Z,3.80
2018-03-08T06:11:41.567Z,3.23
2018-03-08T06:14:08.304Z,3.07
2018-03-08T06:16:34.902Z,3.13
2018-03-08T06:19:01.536Z,3.60
2018-03-08T06:21:28.285Z,3.00
2018-03-08T06:23:54.964Z,3.67
2018-03-08T06:26:21.664Z,3.27
2018-03-08T06:28:48.324Z,3.50
2018-03-08T06:31:15.061Z,3.40
2018-03-08T06:33:42.754Z,3.57
2018-03-08T06:36:09.536Z,2.77
2018-03-08T06:38:36.161Z,2.70
2018-03-08T06:41:02.794Z,3.13
2018-03-08T06:43:29.498Z,3.47
2018-03-08T06:45:56.168Z,3.50
2018-03-08T06:48:23.354Z,3.07
2018-03-08T06:50:49.972Z,3.10
2018-03-08T06:53:16.634Z,2.80
2018-03-08T06:55:43.260Z,3.13
2018-03-08T06:58:09.923Z,3.40
2018-03-08T07:00:36.681Z,3.73
2018-03-08T07:03:03.318Z,3.50
2018-03-08T07:05:31.094Z,3.90
2018-03-08T07:07:57.838Z,2.90
2018-03-08T07:10:24.818Z,3.10
2018-03-08T07:12:51.509Z,2.70
2018-03-08T07:15:18.148Z,2.63
2018-03-08T07:17:45.499Z,3.70
2018-03-08T07:20:12.173Z,3.10
2018-03-08T07:22:39.180Z,3.63
2018-03-08T07:25:06.042Z,2.33
2018-03-08T07:27:32.762Z,3.10
2018-03-08T07:29:59.383Z,2.90
2018-03-08T07:32:26.054Z,2.47
2018-03-08T07:34:53.689Z,2.70
2018-03-08T07:37:20.420Z,2.93
2018-03-08T07:39:47.226Z,2.80
2018-03-08T07:42:13.938Z,2.60
2018-03-08T07:44:40.609Z,2.77
2018-03-08T07:47:07.489Z,2.57
2018-03-08T07:49:34.272Z,2.90
2018-03-08T07:52:00.972Z,2.63
2018-03-08T07:54:28.366Z,2.27
2018-03-08T07:56:55.119Z,2.10
2018-03-08T07:59:21.819Z,2.47
2018-03-08T08:01:48.438Z,2.50
2018-03-08T08:04:21.002Z,2.10
2018-03-08T08:06:53.427Z,2.17
2018-03-08T08:09:20.207Z,2.73
2018-03-08T08:11:47.022Z,2.43
2018-03-08T08:14:13.723Z,2.40
2018-03-08T08:16:40.650Z,2.40
2018-03-08T08:19:07.438Z,2.73
2018-03-08T08:21:34.221Z,2.37
2018-03-08T08:24:00.841Z,2.40
2018-03-08T08:26:27.452Z,2.10
2018-03-08T08:28:54.131Z,2.20
2018-03-08T08:31:20.769Z,2.73
2018-03-08T08:33:47.383Z,1.97
2018-03-08T08:36:14.038Z,2.20
2018-03-08T08:38:40.747Z,2.10
2018-03-08T08:41:07.486Z,3.70
2018-03-08T08:43:34.320Z,2.83
2018-03-08T08:46:01.186Z,1.83
2018-03-08T08:48:27.799Z,1.87
2018-03-08T08:50:54.494Z,1.90
2018-03-08T08:53:21.138Z,2.43
2018-03-08T08:55:47.935Z,2.30
2018-03-08T08:58:14.566Z,2.10
2018-03-08T09:00:41.220Z,1.90
2018-03-08T09:03:08.000Z,1.80
2018-03-08T09:05:35.458Z,1.63
2018-03-08T09:08:02.489Z,2.17
2018-03-08T09:10:29.100Z,2.10
2018-03-08T09:12:55.773Z,1.87
2018-03-08T09:15:22.450Z,1.50
2018-03-08T09:17:49.259Z,1.87
2018-03-08T09:20:15.883Z,2.40
2018-03-08T09:22:42.564Z,1.40
2018-03-08T09:25:09.257Z,2.03
2018-03-08T09:27:36.028Z,1.90
2018-03-08T09:30:02.671Z,1.47
2018-03-08T09:32:29.347Z,1.30
2018-03-08T09:34:56.048Z,1.80
2018-03-08T09:37:22.687Z,1.67
2018-03-08T09:39:49.311Z,1.63
2018-03-08T09:42:15.949Z,1.67
2018-03-08T09:44:42.593Z,1.57
2018-03-08T09:47:09.454Z,1.93
2018-03-08T09:49:36.280Z,1.67
2018-03-08T09:52:02.951Z,1.73
2018-03-08T09:54:29.702Z,1.90
2018-03-08T09:56:56.434Z,1.27
2018-03-08T09:59:23.067Z,1.53
2018-03-08T10:01:49.681Z,1.80
2018-03-08T10:04:16.548Z,1.57
2018-03-08T10:06:43.455Z,1.37
2018-03-08T10:09:10.127Z,1.50
2018-03-08T10:11:36.832Z,1.37
2018-03-08T10:14:03.551Z,1.70
2018-03-08T10:16:30.216Z,1.80
2018-03-08T10:18:57.097Z,1.70
2018-03-08T10:21:44.310Z,1.63
2018-03-08T10:23:50.591Z,1.47
2018-03-08T10:26:17.865Z,1.60
2018-03-08T10:28:44.639Z,1.40
2018-03-08T10:31:11.340Z,1.23
2018-03-08T10:33:38.271Z,1.43
2018-03-08T10:36:05.113Z,1.10
2018-03-08T10:38:32.007Z,1.40
2018-03-08T10:40:58.798Z,1.70
2018-03-08T10:43:25.420Z,1.33
2018-03-08T10:45:52.101Z,1.40
2018-03-08T10:48:19.636Z,1.53
2018-03-08T10:50:46.273Z,1.23
2018-03-08T10:53:12.887Z,1.23
2018-03-08T10:55:39.972Z,1.33
2018-03-08T10:58:06.735Z,1.30
2018-03-08T11:00:39.043Z,1.23
2018-03-08T11:03:06.795Z,2.00
2018-03-08T11:05:32.400Z,1.40
2018-03-08T11:07:59.079Z,1.20
2018-03-08T11:10:25.765Z,1.37
2018-03-08T11:12:52.395Z,1.40
2018-03-08T11:15:19.187Z,1.50
2018-03-08T11:17:45.829Z,1.50
2018-03-08T11:20:12.663Z,1.30
2018-03-08T11:22:39.379Z,1.63
2018-03-08T11:25:06.116Z,1.63
2018-03-08T11:27:32.786Z,1.60
2018-03-08T11:29:59.510Z,1.53
2018-03-08T11:32:26.160Z,1.27
2018-03-08T11:34:52.822Z,1.10
2018-03-08T11:37:19.487Z,1.47
2018-03-08T11:39:46.129Z,1.57
2018-03-08T11:42:12.736Z,1.73
2018-03-08T11:44:39.408Z,1.33
2018-03-08T11:47:06.037Z,2.00
2018-03-08T11:49:32.661Z,1.40
2018-03-08T11:51:59.363Z,1.40
2018-03-08T11:54:26.138Z,1.60
2018-03-08T11:56:52.880Z,1.43
2018-03-08T11:59:19.626Z,1.33
2018-03-08T12:01:46.375Z,1.50
2018-03-08T12:04:13.014Z,1.70
2018-03-08T12:06:39.676Z,1.27
2018-03-08T12:09:06.499Z,1.40
2018-03-08T12:11:33.193Z,1.37
2018-03-08T12:13:59.865Z,1.90
2018-03-08T12:16:26.531Z,1.60
2018-03-08T12:18:53.200Z,1.93
2018-03-08T12:21:19.963Z,1.63
2018-03-08T12:23:46.919Z,1.83
2018-03-08T12:26:14.003Z,1.50
2018-03-08T12:28:40.659Z,2.17
2018-03-08T12:31:07.329Z,1.50
2018-03-08T12:33:34.081Z,1.47
2018-03-08T12:36:00.880Z,1.57
2018-03-08T12:38:27.542Z,1.40
2018-03-08T12:40:54.268Z,1.67
2018-03-08T12:43:20.904Z,1.80
2018-03-08T12:45:47.646Z,1.40
2018-03-08T12:48:14.486Z,1.33
2018-03-08T12:50:41.123Z,1.60
2018-03-08T12:53:07.809Z,1.33
2018-03-08T12:55:34.808Z,1.63
2018-03-08T12:58:01.567Z,1.80
2018-03-08T13:00:28.417Z,1.70
2018-03-08T13:02:55.523Z,1.90
2018-03-08T13:05:22.615Z,1.87
2018-03-08T13:07:49.387Z,1.83
2018-03-08T13:10:16.253Z,2.20
2018-03-08T13:12:43.071Z,1.70
2018-03-08T13:15:10.385Z,1.97
2018-03-08T13:17:37.079Z,1.80
2018-03-08T13:20:03.771Z,2.00
2018-03-08T13:22:30.437Z,1.87
2018-03-08T13:24:57.249Z,1.97
2018-03-08T13:27:23.859Z,1.60
2018-03-08T13:29:50.599Z,1.70
2018-03-08T13:32:18.447Z,1.43
2018-03-08T13:34:45.088Z,1.60
2018-03-08T13:37:11.735Z,1.43
2018-03-08T13:39:38.405Z,1.90
2018-03-08T13:42:11.266Z,1.60
2018-03-08T13:44:39.697Z,1.60
2018-03-08T13:47:06.364Z,1.43
2018-03-08T13:49:36.577Z,1.33
2018-03-08T13:52:03.503Z,1.43
2018-03-08T13:54:30.184Z,1.50
2018-03-08T13:56:57.081Z,2.00
2018-03-08T13:59:23.839Z,1.60
2018-03-08T14:01:50.493Z,1.60
2018-03-08T14:04:17.429Z,1.70
2018-03-08T14:06:44.301Z,1.30
2018-03-08T14:09:10.974Z,1.33
2018-03-08T14:11:37.609Z,1.30
2018-03-08T14:14:04.314Z,1.60
2018-03-08T14:16:30.974Z,1.33
2018-03-08T14:18:57.607Z,1.13
2018-03-08T14:21:24.683Z,1.40
2018-03-08T14:23:51.521Z,1.27
2018-03-08T14:26:18.991Z,1.50
2018-03-08T14:28:45.698Z,1.13
2018-03-08T14:31:12.333Z,1.67
2018-03-08T14:33:39.013Z,1.57
2018-03-08T14:36:06.223Z,1.30
2018-03-08T14:38:32.933Z,1.17
2018-03-08T14:40:59.549Z,1.80
2018-03-08T14:43:26.190Z,1.20
2018-03-08T14:45:52.829Z,1.60
2018-03-08T14:48:19.459Z,1.60
2018-03-08T14:50:46.165Z,1.23
2018-03-08T14:53:12.901Z,1.40
2018-03-08T14:55:39.575Z,1.40
2018-03-08T14:58:06.297Z,1.60
2018-03-08T15:00:33.111Z,1.63
2018-03-08T15:02:59.882Z,1.20
2018-03-08T15:05:26.811Z,2.00
2018-03-08T15:07:53.464Z,1.20
2018-03-08T15:10:20.219Z,1.40
2018-03-08T15:12:47.062Z,1.50
2018-03-08T15:15:13.757Z,1.30
2018-03-08T15:17:40.669Z,1.40
2018-03-08T15:20:07.807Z,1.27
2018-03-08T15:22:34.683Z,1.60
2018-03-08T15:25:01.337Z,1.20
2018-03-08T15:27:28.398Z,1.43
2018-03-08T15:29:55.213Z,1.20
2018-03-08T15:32:22.000Z,1.07
2018-03-08T15:34:49.149Z,1.67
2018-03-08T15:37:15.890Z,1.57
2018-03-08T15:39:42.638Z,1.50
2018-03-08T15:42:09.263Z,1.40
2018-03-08T15:44:35.952Z,1.10
2018-03-08T15:47:02.621Z,1.17
2018-03-08T15:49:29.250Z,1.30
2018-03-08T15:51:55.914Z,1.10
2018-03-08T15:54:22.609Z,1.60
2018-03-08T15:56:49.254Z,1.07
2018-03-08T15:59:15.891Z,1.47
2018-03-08T16:01:43.843Z,1.23
2018-03-08T16:04:10.521Z,1.30
2018-03-08T16:06:43.101Z,1.87
2018-03-08T16:09:09.946Z,1.40
2018-03-08T16:11:36.895Z,1.30
2018-03-08T16:14:03.654Z,1.43
2018-03-08T16:16:30.300Z,1.27
2018-03-08T16:18:57.031Z,1.37
2018-03-08T16:21:23.781Z,1.20
2018-03-08T16:23:50.571Z,1.33
2018-03-08T16:26:17.267Z,1.37
2018-03-08T16:28:43.906Z,1.13
2018-03-08T16:31:10.562Z,1.40
2018-03-08T16:33:37.261Z,1.20
2018-03-08T16:36:05.344Z,1.30
2018-03-08T16:38:32.053Z,1.43
2018-03-08T16:40:58.748Z,1.00
2018-03-08T16:43:26.497Z,1.20
2018-03-08T16:45:53.534Z,1.10
2018-03-08T16:48:20.207Z,0.90
2018-03-08T16:50:46.912Z,0.90
2018-03-08T16:53:13.571Z,1.30
2018-03-08T16:55:40.302Z,1.27
2018-03-08T16:58:07.025Z,1.10
2018-03-08T17:00:33.679Z,1.47
2018-03-08T17:03:00.324Z,1.27
2018-03-08T17:05:28.030Z,1.07
2018-03-08T17:07:54.635Z,1.30
2018-03-08T17:10:21.260Z,1.30
2018-03-08T17:12:48.362Z,1.27
2018-03-08T17:15:15.087Z,1.20
2018-03-08T17:17:41.743Z,1.33
2018-03-08T17:20:09.028Z,1.30
2018-03-08T17:22:35.730Z,1.37
2018-03-08T17:25:02.497Z,1.60
2018-03-08T17:27:29.253Z,1.87
2018-03-08T17:29:56.139Z,1.20
2018-03-08T17:32:22.795Z,2.20
2018-03-08T17:34:49.586Z,1.60
2018-03-08T17:37:16.366Z,1.47
2018-03-08T17:39:43.099Z,2.07
2018-03-08T17:42:09.797Z,1.50
2018-03-08T17:44:36.677Z,1.47
2018-03-08T17:47:04.428Z,1.60
2018-03-08T17:49:33.482Z,1.83
2018-03-08T17:52:00.668Z,1.80
2018-03-08T17:54:27.501Z,1.73
2018-03-08T17:56:54.147Z,1.50
2018-03-08T17:59:20.855Z,2.30
2018-03-08T18:01:47.535Z,1.47
2018-03-08T18:04:14.247Z,1.47
2018-03-08T18:06:40.898Z,1.23
2018-03-08T18:09:07.598Z,1.10
2018-03-08T18:11:34.262Z,1.20
2018-03-08T18:14:00.914Z,1.63
2018-03-08T18:16:28.762Z,1.53
2018-03-08T18:18:55.438Z,1.23
2018-03-08T18:21:22.160Z,1.53
2018-03-08T18:23:48.870Z,1.70
2018-03-08T18:26:15.540Z,1.60
2018-03-08T18:28:42.389Z,1.43
2018-03-08T18:31:09.042Z,1.30
2018-03-08T18:33:36.589Z,1.40
2018-03-08T18:36:03.379Z,1.50
2018-03-08T18:38:30.090Z,1.00
2018-03-08T18:40:56.871Z,1.47
2018-03-08T18:43:23.534Z,1.53
2018-03-08T18:45:50.184Z,1.27
2018-03-08T18:48:16.895Z,1.23
2018-03-08T18:50:43.682Z,1.60
2018-03-08T18:53:10.339Z,1.20
2018-03-08T18:55:36.959Z,1.40
2018-03-08T18:58:23.402Z,1.50
2018-03-08T19:00:50.089Z,1.30
2018-03-08T19:03:16.716Z,1.43
2018-03-08T19:05:44.383Z,1.60
2018-03-08T19:08:11.361Z,1.37
2018-03-08T19:10:38.076Z,1.13
2018-03-08T19:13:04.946Z,1.07
2018-03-08T19:15:31.613Z,1.50
2018-03-08T19:17:58.406Z,1.60
2018-03-08T19:20:25.207Z,1.40
2018-03-08T19:22:52.020Z,1.30
2018-03-08T19:25:18.747Z,1.20
2018-03-08T19:27:45.711Z,1.63
2018-03-08T19:30:12.522Z,1.63
2018-03-08T19:32:39.197Z,1.40
2018-03-08T19:35:05.810Z,1.73
2018-03-08T19:37:32.887Z,1.70
2018-03-08T19:39:59.782Z,1.50
2018-03-08T19:42:26.757Z,1.50
2018-03-08T19:44:53.452Z,2.00
2018-03-08T19:47:20.113Z,1.70
2018-03-08T19:49:46.884Z,1.63
2018-03-08T19:52:13.558Z,1.60
2018-03-08T19:54:40.199Z,1.57
2018-03-08T19:57:06.953Z,1.70
2018-03-08T19:59:34.739Z,1.70
2018-03-08T20:02:01.604Z,1.40
2018-03-08T20:04:28.261Z,1.43
2018-03-08T20:06:54.905Z,1.27
2018-03-08T20:09:21.750Z,1.80
2018-03-08T20:11:48.889Z,1.60
2018-03-08T20:14:15.736Z,1.70
2018-03-08T20:16:42.394Z,1.33
2018-03-08T20:19:09.010Z,1.60
2018-03-08T20:21:36.740Z,1.60
2018-03-08T20:24:03.394Z,1.50
2018-03-08T20:26:30.011Z,1.77
2018-03-08T20:28:56.993Z,1.23
2018-03-08T20:31:23.629Z,1.40
2018-03-08T20:33:50.338Z,1.23
2018-03-08T20:36:17.064Z,1.60
2018-03-08T20:38:43.751Z,1.50
2018-03-08T20:41:10.407Z,1.40
2018-03-08T20:43:37.345Z,1.53
2018-03-08T20:46:04.078Z,1.83
2018-03-08T20:48:30.886Z,1.70
2018-03-08T20:50:57.526Z,1.70
2018-03-08T20:53:24.480Z,1.63
2018-03-08T20:55:51.181Z,1.87
2018-03-08T20:58:17.833Z,1.70
2018-03-08T21:00:44.568Z,1.80
2018-03-08T21:03:11.357Z,1.43
2018-03-08T21:05:38.006Z,2.20
2018-03-08T21:08:04.697Z,2.00
2018-03-08T21:10:31.321Z,1.83
2018-03-08T21:12:58.999Z,2.03
2018-03-08T21:15:25.663Z,2.70
2018-03-08T21:17:52.288Z,3.40
2018-03-08T21:20:19.387Z,3.47
2018-03-08T21:22:46.052Z,3.03
2018-03-08T21:25:12.685Z,1.97
2018-03-08T21:27:39.449Z,1.83
2018-03-08T21:30:06.160Z,1.70
2018-03-08T21:32:32.818Z,1.80
2018-03-08T21:34:59.514Z,1.50
2018-03-08T21:37:26.983Z,1.57
2018-03-08T21:39:53.776Z,1.67
2018-03-08T21:42:20.434Z,1.60
2018-03-08T21:44:47.074Z,1.00
2018-03-08T21:47:13.704Z,1.00
2018-03-08T21:49:40.346Z,0.70
2018-03-08T21:52:07.090Z,0.80
2018-03-08T21:54:33.754Z,0.70
2018-03-08T21:57:00.400Z,0.90
2018-03-08T22:01:58.897Z,0.77
2018-03-08T22:04:25.550Z,0.70
2018-03-08T22:06:52.523Z,0.67
2018-03-08T22:09:19.191Z,0.50
2018-03-08T22:11:46.381Z,0.60
2018-03-08T22:14:13.551Z,0.50
2018-03-08T22:16:40.217Z,0.60
2018-03-08T22:19:06.842Z,0.77
2018-03-08T22:21:33.783Z,0.60
2018-03-08T22:24:00.439Z,0.80
2018-03-08T22:26:27.396Z,0.70
2018-03-08T22:28:54.072Z,0.60
2018-03-08T22:31:20.769Z,0.60
2018-03-08T22:33:47.450Z,0.57
2018-03-08T22:36:15.051Z,0.90
2018-03-08T22:38:41.681Z,0.73
2018-03-08T22:41:08.292Z,0.57
2018-03-08T22:43:34.968Z,0.63
2018-03-08T22:46:01.875Z,0.60
2018-03-08T22:48:29.509Z,0.70
2018-03-08T22:50:56.272Z,1.10
2018-03-08T22:53:23.064Z,0.70
2018-03-08T22:55:49.676Z,0.60
2018-03-08T22:58:16.365Z,0.90
2018-03-08T23:00:43.104Z,0.80
2018-03-08T23:03:15.371Z,1.00
2018-03-08T23:05:42.012Z,0.60
2018-03-08T23:08:08.935Z,0.70
2018-03-08T23:10:35.632Z,0.70
2018-03-08T23:13:02.323Z,0.80
2018-03-08T23:15:29.008Z,1.00
2018-03-08T23:17:55.803Z,0.90
2018-03-08T23:20:22.411Z,0.80
2018-03-08T23:22:49.298Z,0.87
2018-03-08T23:25:16.028Z,0.93
2018-03-08T23:27:42.694Z,1.00
2018-03-08T23:30:09.332Z,0.70
2018-03-08T23:32:36.048Z,0.90
2018-03-08T23:35:02.704Z,0.73
2018-03-08T23:37:29.377Z,0.70
2018-03-08T23:39:56.043Z,0.90
2018-03-08T23:42:22.689Z,0.90
2018-03-08T23:44:49.352Z,0.80
2018-03-08T23:47:16.061Z,1.20
2018-03-08T23:49:43.621Z,0.90
2018-03-08T23:52:10.251Z,0.83
2018-03-08T23:54:36.888Z,1.00
2018-03-08T23:57:03.610Z,1.20
2018-03-08T23:59:30.239Z,0.90
